Impacts TAF Board INFO
FOR SITUATIONAL AWARENESS. NOT TO BE USED FOR FLIGHT PLANNING PURPOSES.
IDs:

KPNS - Pensacola Intl, FL, US

Issued at 1123 UTC 19 Nov 2017
Updated at 1417 UTC 19 Nov 2017
Potential Impact None Slight Moderate High
Time1353Z 19/15Z 19/16Z 19/17Z 19/18Z 19/19Z 19/20Z 19/21Z 19/22Z 19/23Z 20/00Z 20/01Z 20/02Z 20/03Z>>
Type OBS PRVL PRVL PRVL PRVL PRVL PRVL PRVL PRVL PRVL PRVL PRVL PRVL PRVL
VIS 10 >6 >6 >6 >6 >6 >6 >6 >6 >6 >6 >6 >6 >6
CIG -- -- -- -- -- -- -- -- -- -- -- -- -- --
Cover CLR SKC SKC SKC SKC SKC SKC SKC SKC SKC SKC SKC SKC SKC
FltCat VFR VFR VFR VFR VFR VFR VFR VFR VFR VFR VFR VFR VFR VFR
WX -- -- -- -- -- -- -- -- -- -- -- -- -- --
WDir 350 350 350 350 350 350 350 350 350 350 350 350 350 360
WSpd 17 16 16 16 16 16 16 16 16 16 16 16 16 6
WGst 23 26 26 26 26 26 26 26 26 26 26 26 26 --

Raw TAF
KPNS 191123Z 1912/2012 35017G23KT P6SM BKN070
  FM191500 35016G26KT P6SM SKC
  FM200300 36006KT P6SM SKC


Raw METAR
KPNS 191353Z 35017G23KT 10SM CLR 11/04 A3010 RMK AO2 SLP193 T01110039
KPNS 191253Z 35013G19KT 10SM CLR 11/04 A3006 RMK AO2 SLP182 T01060039
KPNS 191153Z 35016G26KT 10SM FEW070 11/04 A3002 RMK AO2 PK WND 36031/1125 SLP168 60002 70004 T01110044 10167 20111 51018

METAR Board
Radar Display
Forecast Discussion

FOR SITUATIONAL AWARENESS. NOT TO BE USED FOR FLIGHT PLANNING PURPOSES.